Pedro Miranda

Chefscout - Racing
17 Jul 2027
Samstag
Verarbeitung

Persönlichkeit

Anpassungsfähigkeit (1) Ehrgeiz (2) Kontroverse (11) Loyalität (6) Druck (15) Professionalität (7) Fairness (3) Temperament (17)

Profil

Trainerstil Demokratisch
Lizenz Kontinentale Pro
Entschlossenheit 3
Menschenführung 6
Motivation 7
Disziplin 7
Arbeitszufriedenheit
94%
Ermüdung
0%
Rolle Chefscout
Gehalt 26.4K p/W
Vertrag 14.03.2030

Leistung

Verhalten Gut
Trainingseffektivität
18%
Spielerentwicklung
35%
Verletzungsprävention
20%
Taktische Umsetzung
10%

Letzte Ereignisse

Nahm an einer Scouting-Besprechung teil jetzt
Nahm an einer Scouting-Besprechung teil 7T her
Nahm an einer Scouting-Besprechung teil 14T her
Nahm an einer Scouting-Besprechung teil 21T her
Nahm an einer Scouting-Besprechung teil 28T her
Nahm an einer Scouting-Besprechung teil 35T her
Nahm an einer Scouting-Besprechung teil 49T her
Nahm an einer Scouting-Besprechung teil 56T her

Aktuell beobachtet

167
Spieler Verein Status Fähigkeit Vertrauen Beobachtet Zuletzt beobachtet Letzte Stimme
Facundo Perdomo Liverpool Montevideo Aktiv 94 / 102 40% 2 29.11.2026 -
Matías Núñez Carabobo Aktiv 103 / 100 40% 3 29.11.2026 -
Pedro González Cerro Largo Aktiv 113 / 111 40% 2 27.11.2026 -
Rafael Sangiovani Metropolitanos Aktiv 99 / 106 40% 3 27.11.2026 -
Alejo Dramisino Atlanta Aktiv 124 / 114 40% 1 27.11.2026 -
Ángel Maciel Tacuarembo Aktiv 109 / 103 40% 2 26.11.2026 -
Adrián Acosta Sampaio Correa Aktiv 71 / 85 40% 1 26.11.2026 -
Franco Quinteros Estudiantes Aktiv 108 / 118 40% 1 25.11.2026 -
Ezequiel Neira Carabobo Aktiv 105 / 106 40% 1 25.11.2026 -
Tomás Moschion Albion Aktiv 109 / 114 40% 5 24.11.2026 -
Adriano Freitas Deportivo Maldonado Aktiv 100 / 105 40% 2 22.11.2026 -
Tiago Glattli Penarol Aktiv 73 / 89 40% 1 22.11.2026 -
Agustín Araujo Trujillanos Aktiv 112 / 99 40% 3 20.11.2026 -
Santiago Viera Cerrito Aktiv 94 / 102 40% 1 20.11.2026 -
Facundo Butti Cerro Aktiv 97 / 99 40% 1 20.11.2026 -
Lucas Dogliotti La Luz Aktiv 94 / 90 40% 1 20.11.2026 -
Rafael Haller Liverpool Montevideo Aktiv 102 / 107 40% 2 19.11.2026 -
Martín Gianoli Deportivo La Guaira Aktiv 115 / 112 40% 1 19.11.2026 -
Iván Moreno Leon Aktiv 108 / 99 40% 1 19.11.2026 -
Francisco Coirolo Atenas Aktiv 106 / 103 40% 1 18.11.2026 -
Santiago Costa Albion Aktiv 111 / 101 40% 2 16.11.2026 -
Augusto Gallo Fenix Aktiv 107 / 92 40% 5 16.11.2026 -
Carlos Airala Albion Aktiv 111 / 109 40% 3 15.11.2026 -
Facundo Muñoa Boston River Aktiv 114 / 111 40% 1 15.11.2026 -
Emanuel Cecchini Juventud Aktiv 105 / 115 40% 4 14.11.2026 -
Alejo Fernández O'Higgins Aktiv 89 / 96 40% 1 14.11.2026 -
Franco Hanashiro Colegiales Aktiv 122 / 108 40% 1 13.11.2026 -
Francisco Ginella Albion Aktiv 97 / 108 40% 2 11.11.2026 -
Gastón Moreyra Almirante Brown Aktiv 120 / 115 40% 1 11.11.2026 -
Lautaro Centurión Fenix Aktiv 107 / 95 40% 1 11.11.2026 -
Juan Luis Alfaro Banfield Aktiv 122 / 121 40% 1 11.11.2026 -
Hugo Gallardo Veracruz Aktiv 87 / 107 40% 1 11.11.2026 -
Santiago Roggero Gimnasia y Esgrima Aktiv 109 / 119 40% 1 11.11.2026 -
Maximiliano Ribero Central Norte Aktiv 108 / 111 40% 2 08.11.2026 -
Kevin Martínez Cerro Aktiv 90 / 81 40% 1 08.11.2026 -
Joel Torres San Luis Aktiv 96 / 90 40% 4 07.11.2026 -
Franco Díaz Temperley Aktiv 124 / 117 40% 2 07.11.2026 -
Axel Pérez Cerrito Aktiv 115 / 113 40% 2 07.11.2026 -
Federico Marín Colegiales Aktiv 101 / 102 40% 1 07.11.2026 -
Nahuel Sena Cerro Aktiv 111 / 106 40% 1 05.11.2026 -
Nahuel Galardi Maipú Aktiv 108 / 116 40% 1 05.11.2026 -
Gustavo Dionisi Guarani Aktiv 98 / 85 40% 1 05.11.2026 -
Iván Cartés Uruguay Montevideo Aktiv 89 / 82 40% 1 04.11.2026 -
Juan Piris Cortulua Aktiv 72 / 85 40% 1 04.11.2026 -
Braian Galván Oriental Aktiv 113 / 107 40% 1 03.11.2026 -
Nicolás Mosca Atlanta Aktiv 121 / 111 40% 1 03.11.2026 -
Santiago Otegui Plaza Colonia Aktiv 107 / 96 40% 1 02.11.2026 -
Brian Farioli Estudiantes Aktiv 131 / 124 40% 2 31.10.2026 -
Matías Viguet Maipú Aktiv 118 / 114 40% 1 31.10.2026 -
Oscar Garrido Mitre Aktiv 113 / 111 40% 2 30.10.2026 -
Santiago Sala Güemes Aktiv 102 / 105 40% 1 30.10.2026 -
Tomás Porra Barracas Central Aktiv 121 / 125 40% 2 29.10.2026 -
Gianluca Pugliese Güemes Aktiv 114 / 108 40% 1 29.10.2026 -
Alexander Hernández Racing Aktiv 105 / 110 40% 1 29.10.2026 -
Emiliano Ancheta Nacional Aktiv 126 / 123 40% 4 27.10.2026 -
Gonzalo Silva Progreso Aktiv 116 / 99 40% 2 27.10.2026 -
Erico Cuello Defensor Sporting Aktiv 107 / 99 40% 1 27.10.2026 -
Damián Cabrera River Plate Aktiv 87 / 86 40% 3 25.10.2026 -
Matías González Cerro Largo Aktiv 94 / 97 40% 1 24.10.2026 -
Eduardo Agüero Montevideo City Torque Aktiv 101 / 116 40% 1 23.10.2026 -
Mariano Ramos Guarani Aktiv 107 / 95 40% 1 23.10.2026 -
Alejo Antilef Penarol Aktiv 106 / 114 40% 3 21.10.2026 -
Facundo Ardiles Estudiantes Aktiv 112 / 106 40% 1 21.10.2026 -
Nicolás Retamar Ferro Carril Oeste Aktiv 130 / 120 40% 1 20.10.2026 -
Luciano Minhondo Uruguay Montevideo Aktiv 89 / 87 40% 1 19.10.2026 -
Iñaki Larthirigoyen San Telmo Aktiv 128 / 115 40% 1 19.10.2026 -
Maicol Ferreira Danubio Aktiv 98 / 107 40% 1 17.10.2026 -
Matías Espíndola Deportivo Maldonado Aktiv 115 / 103 40% 1 17.10.2026 -
Julián Cosi Madryn Aktiv 127 / 105 40% 1 16.10.2026 -
Ignacio Pereira Danubio Aktiv 106 / 103 40% 1 15.10.2026 -
Federico Losas Chacarita Juniors Aktiv 119 / 115 40% 1 15.10.2026 -
Matías Montero Madryn Aktiv 86 / 90 40% 1 15.10.2026 -
Lucas Arzamendia Atenas Aktiv 93 / 93 40% 3 13.10.2026 -
Martín Campos Ferro Carril Oeste Aktiv 113 / 107 40% 1 13.10.2026 -
Franco Troyansky Audax Italiano Aktiv 102 / 107 40% 1 13.10.2026 -
Nicolás dos Santos River Plate Aktiv 89 / 87 40% 1 13.10.2026 -
Lucio Castillo Colegiales Aktiv 95 / 108 40% 2 12.10.2026 -
Nazareno Fernández Colombo Los Andes Aktiv 111 / 109 40% 1 12.10.2026 -
Kevin Lewis Liverpool Montevideo Aktiv 108 / 97 40% 2 11.10.2026 -
Alan Brítez Union La Calera Aktiv 97 / 96 40% 2 06.10.2026 -
Enzo Vlaeminch Oriental Aktiv 99 / 101 40% 2 05.10.2026 -
Tadeo Aguiar La Luz Aktiv 88 / 91 40% 1 05.10.2026 -
Kevin Palacios Santos Laguna Aktiv 121 / 99 40% 1 05.10.2026 -
Luis Olivera Defensores Unidos Aktiv 100 / 104 40% 2 03.10.2026 -
Daniel Arcila Leon Aktiv 94 / 121 40% 1 01.10.2026 -
Martín Ginzo Deportivo Maldonado Aktiv 111 / 95 40% 3 30.09.2026 -
Lorenzo Couture Penarol Aktiv 90 / 103 40% 1 30.09.2026 -
Ezequiel Busquets Montevideo City Torque Aktiv 91 / 100 40% 3 27.09.2026 -
Santiago Valenzuela Chaco For Ever Aktiv 100 / 113 40% 1 27.09.2026 -
Andrés Romero Albion Aktiv 106 / 87 40% 1 27.09.2026 -
Juan Moreno La Luz Aktiv 122 / 117 40% 1 27.09.2026 -
Léider Berrío Independiente Medellin Aktiv 123 / 119 40% 3 24.09.2026 -
Mauricio Chanampa Trujillanos Aktiv 65 / 84 40% 1 24.09.2026 -
Esteban Beltrán Jaguares Aktiv 96 / 98 40% 1 24.09.2026 -
Román Ugarriza Cerrito Aktiv 91 / 86 40% 1 23.09.2026 -
Lautaro Lovazzano Portuguesa Aktiv 109 / 109 40% 2 20.09.2026 -
Andrés Sarmiento Atletico Nacional Aktiv 105 / 121 40% 1 19.09.2026 -
Francisco Casanova Cerrito Aktiv 95 / 112 40% 1 19.09.2026 -
José Arbío River Plate Aktiv 106 / 90 40% 1 19.09.2026 -
Daniel Mera Union Magdalena Aktiv 91 / 92 40% 1 18.09.2026 -
Daniel Rivera Junior Aktiv 106 / 114 40% 1 18.09.2026 -
Sebastián Lentinelly Olimpia Aktiv 120 / 113 40% 1 18.09.2026 -
Francisco Valenzuela Zulia Aktiv 81 / 72 40% 1 18.09.2026 -
Lucas Verza Olimpia Aktiv 100 / 114 40% 1 16.09.2026 -
Cristian Lora Leones Aktiv 95 / 87 40% 1 16.09.2026 -
Isaac Méndez Central Espanol Aktiv 107 / 92 40% 1 15.09.2026 -
Nicolás Hernández Atletico Nacional Aktiv 121 / 123 40% 1 14.09.2026 -
Sebastián Moreno Patriotas Aktiv 92 / 97 40% 1 14.09.2026 -
Martín Sarrafiore O'Higgins Aktiv 115 / 118 40% 1 14.09.2026 -
Bastián Yáñez O'Higgins Aktiv 125 / 108 40% 2 13.09.2026 -
Nicolás Castro Toluca Aktiv 120 / 138 40% 2 12.09.2026 -
Fernando Camarda Central Espanol Aktiv 108 / 95 40% 1 12.09.2026 -
Alan Robledo O'Higgins Aktiv 115 / 103 40% 1 11.09.2026 -
Máximo Lorenzi Plaza Colonia Aktiv 106 / 106 40% 1 11.09.2026 -
Andrés Samurio Tacuarembo Aktiv 97 / 99 40% 3 10.09.2026 -
Walberto Agámez Aguilas Doradas Aktiv 91 / 101 40% 1 08.09.2026 -
Francisco Salerno Defensores Unidos Aktiv 93 / 109 40% 1 08.09.2026 -
Emiliano Bermúdez Oriental Aktiv 95 / 84 40% 1 07.09.2026 -
Miguel Sánchez Deportivo Cali Aktiv 96 / 90 40% 1 06.09.2026 -
Agustín Solari 12 de Octubre Aktiv 93 / 80 40% 1 06.09.2026 -
Ronald Álvarez Colon Aktiv 110 / 90 40% 1 06.09.2026 -
Mateo Rinaldi Danubio Aktiv 110 / 116 40% 1 04.09.2026 -
Emiliano Aires Rampla Juniors Aktiv 101 / 101 40% 1 04.09.2026 -
Joaquín Trasante Danubio Aktiv 103 / 112 40% 1 02.09.2026 -
Santiago Ramírez Deportivo Maldonado Aktiv 98 / 104 40% 1 31.08.2026 -
Kevin Chacón Depor Aktiv 89 / 101 40% 1 31.08.2026 -
Santiago Rodríguez Fenix Aktiv 94 / 81 40% 1 30.08.2026 -
Gianfranco Trasante Progreso Aktiv 92 / 100 40% 1 29.08.2026 -
Luiz Artigas Aktiv 95 / 95 40% 1 27.08.2026 -
Aldo Montes Tigres Aktiv 100 / 102 40% 1 27.08.2026 -
Miguel Ángel Arboleda Leones Aktiv 111 / 93 40% 1 27.08.2026 -
Fabián Ángel Junior Aktiv 126 / 108 40% 1 27.08.2026 -
Dylan Lozano Aguilas Doradas Aktiv 99 / 104 40% 1 26.08.2026 -
Agustín Pérez Deportivo Tachira Aktiv 91 / 100 40% 1 26.08.2026 -
Cristhofer Mesías Universidad de Concepcion Aktiv 96 / 92 40% 1 25.08.2026 -
Aldair Gutiérrez Atletico Bucaramanga Aktiv 125 / 114 40% 1 25.08.2026 -
Álvaro Meléndez Real Cartagena Aktiv 114 / 106 40% 1 23.08.2026 -
Santiago Cuero Fortaleza CEIF Aktiv 102 / 117 40% 1 23.08.2026 -
Yulián Montaño Depor Aktiv 70 / 80 40% 1 22.08.2026 -
Weibmar Asprilla Independiente Medellin Aktiv 117 / 103 40% 1 22.08.2026 -
Kevin Balanta Fortaleza CEIF Aktiv 92 / 101 40% 1 20.08.2026 -
Diego Castillo Real Cartagena Aktiv 101 / 103 40% 1 19.08.2026 -
Vasco Espejo Alianza Lima Aktiv 80 / 87 40% 1 19.08.2026 -
Rafael Hornos Liverpool Montevideo Aktiv 73 / 98 40% 1 19.08.2026 -
Mateo Jara Sportivo Luqueno Aktiv 62 / 69 40% 2 18.08.2026 -
Matías González Penarol Aktiv 111 / 116 40% 1 18.08.2026 -
Cristian Lima Uruguay Montevideo Aktiv 113 / 96 40% 1 17.08.2026 -
José Luis Caicedo Barranquilla Aktiv 130 / 122 40% 1 17.08.2026 -
Milton Valenzuela Atlas Aktiv 123 / 108 40% 2 16.08.2026 -
Bryan Castrillón Independiente Medellin Aktiv 114 / 115 40% 1 15.08.2026 -
Guido Sosa Atenas Aktiv 85 / 103 40% 1 14.08.2026 -
Adrián Vila Rampla Juniors Aktiv 89 / 104 40% 1 13.08.2026 -
Guillermo Borthagaray Wanderers Aktiv 86 / 90 40% 1 13.08.2026 -
Franco González Penarol Aktiv 102 / 116 40% 1 12.08.2026 -
Juan Sebastián Rivero Progreso Aktiv 116 / 103 40% 2 11.08.2026 -
Franco Martínez Artigas Aktiv 90 / 93 40% 1 11.08.2026 -
Leonardo Olavarría Uruguay Montevideo Aktiv 100 / 98 40% 1 11.08.2026 -
Juan Fernando Alfaro Olimpia Aktiv 124 / 106 40% 1 08.08.2026 -
Martín Rea Atletico Bucaramanga Aktiv 108 / 109 40% 1 08.08.2026 -
Williams Barlasina Fortaleza CEIF Aktiv 111 / 101 40% 1 07.08.2026 -
Santiago Asprilla Envigado Aktiv 89 / 92 40% 1 07.08.2026 -
Juan Pérez Racing Aktiv 98 / 99 40% 1 06.08.2026 -
Maximiliano Zelaya Miramar Misiones Aktiv 81 / 96 40% 1 04.08.2026 -
Rodrigo Viera Cerrito Aktiv 101 / 96 40% 1 04.08.2026 -
Mathías Bernatene Liverpool Montevideo Aktiv 86 / 86 40% 1 04.08.2026 -
Roameth Romaña Llaneros Aktiv 109 / 96 40% 1 04.08.2026 -
Álex Vázquez Racing Aktiv 97 / 120 40% 1 01.08.2026 -